Time;durP1;ratioP1;P1;durP2;ratioP2;P2;SDS_P1;SDS_P2;PMS_P1;PMS_P2;Temp;Humidity;BMP_temperature;BMP_pressure;BME280_temperature;BME280_humidity;BME280_pressure;Samples;Min_cycle;Max_cycle;Signal;HPM_P1;HPM_P2
2021/05/31 00:01:51;;;;;;;7.90;5.77;;;;;;;;;;4923782;29;20129;-57
2021/05/31 00:04:17;;;;;;;8.15;5.30;;;;;;;;;;4925785;29;20054;-55
2021/05/31 00:07:04;;;;;;;14.00;6.07;;;;;;;;;;4924685;29;20510;-55
2021/05/31 00:09:34;;;;;;;11.30;5.68;;;;;;;;;;4921192;29;20727;-57
2021/05/31 00:12:01;;;;;;;12.02;5.80;;;;;;;;;;4924644;29;20048;-56
2021/05/31 00:14:28;;;;;;;12.93;6.70;;;;;;;;;;4928119;29;20488;-56
2021/05/31 00:16:56;;;;;;;9.80;6.22;;;;;;;;;;4927505;29;20073;-56
2021/05/31 00:19:23;;;;;;;12.52;6.25;;;;;;;;;;4927305;29;20043;-56
2021/05/31 00:21:50;;;;;;;11.82;6.13;;;;;;;;;;4920365;29;20099;-57
2021/05/31 00:24:17;;;;;;;8.05;5.60;;;;;;;;;;4925857;29;20504;-57
2021/05/31 00:26:44;;;;;;;9.20;6.07;;;;;;;;;;4923741;29;20043;-58
2021/05/31 00:29:11;;;;;;;10.07;6.27;;;;;;;;;;4925368;29;20175;-57
2021/05/31 00:31:38;;;;;;;10.55;5.50;;;;;;;;;;4922994;29;20044;-58
2021/05/31 00:34:05;;;;;;;10.57;5.68;;;;;;;;;;4923606;28;20052;-57
2021/05/31 00:36:31;;;;;;;11.43;6.32;;;;;;;;;;4927538;28;20044;-56
2021/05/31 00:38:58;;;;;;;9.65;6.75;;;;;;;;;;4928180;29;20729;-57
2021/05/31 00:41:25;;;;;;;12.03;6.47;;;;;;;;;;4921048;29;20512;-55
2021/05/31 00:43:52;;;;;;;10.18;6.35;;;;;;;;;;4907540;29;20115;-56
2021/05/31 00:46:19;;;;;;;13.13;7.10;;;;;;;;;;4927051;29;20063;-56
2021/05/31 00:48:45;;;;;;;16.63;6.50;;;;;;;;;;4920800;29;20826;-55
2021/05/31 00:51:12;;;;;;;11.07;5.82;;;;;;;;;;4929509;29;20050;-57
2021/05/31 00:53:41;;;;;;;9.15;6.30;;;;;;;;;;4928249;29;20523;-59
2021/05/31 00:56:08;;;;;;;12.98;6.90;;;;;;;;;;4923465;29;20040;-56
2021/05/31 00:58:36;;;;;;;9.95;6.40;;;;;;;;;;4924442;29;20044;-57
2021/05/31 01:01:04;;;;;;;13.75;6.88;;;;;;;;;;4923396;29;20123;-52
2021/05/31 01:03:32;;;;;;;10.23;6.50;;;;;;;;;;4924351;29;20057;-57
2021/05/31 01:06:01;;;;;;;9.27;6.57;;;;;;;;;;4923064;29;20507;-57
2021/05/31 01:08:48;;;;;;;9.60;6.55;;;;;;;;;;4923666;29;20139;-55
2021/05/31 01:11:30;;;;;;;12.60;7.10;;;;;;;;;;4919213;29;20143;-56
2021/05/31 01:14:12;;;;;;;13.20;6.95;;;;;;;;;;4927180;29;20090;-56
2021/05/31 01:16:46;;;;;;;13.07;7.30;;;;;;;;;;4921322;29;20062;-57
2021/05/31 01:19:15;;;;;;;12.27;6.47;;;;;;;;;;4924053;29;20040;-56
2021/05/31 01:21:46;;;;;;;10.45;6.45;;;;;;;;;;4928788;29;20044;-56
2021/05/31 01:24:29;;;;;;;18.40;6.88;;;;;;;;;;4923457;29;20119;-55
2021/05/31 01:27:21;;;;;;;17.63;6.85;;;;;;;;;;4923059;29;20036;-55
2021/05/31 01:30:03;;;;;;;10.98;7.40;;;;;;;;;;4923638;29;20052;-56
2021/05/31 01:32:35;;;;;;;15.43;7.18;;;;;;;;;;4922922;29;20048;-55
2021/05/31 01:35:03;;;;;;;16.88;7.07;;;;;;;;;;4924027;29;20559;-55
2021/05/31 01:37:32;;;;;;;15.43;7.70;;;;;;;;;;4928216;29;20062;-57
2021/05/31 01:40:01;;;;;;;13.50;7.75;;;;;;;;;;4907994;29;20047;-55
2021/05/31 01:42:29;;;;;;;14.65;8.23;;;;;;;;;;4924536;29;20036;-56
2021/05/31 01:44:55;;;;;;;15.98;7.35;;;;;;;;;;4924638;28;20044;-56
2021/05/31 01:47:22;;;;;;;17.73;8.18;;;;;;;;;;4928843;29;20948;-57
2021/05/31 01:49:50;;;;;;;15.77;8.27;;;;;;;;;;4924881;29;20071;-58
2021/05/31 01:52:17;;;;;;;13.52;8.00;;;;;;;;;;4929556;29;20055;-55
2021/05/31 01:54:43;;;;;;;10.88;7.13;;;;;;;;;;4924688;29;20063;-56
2021/05/31 01:57:10;;;;;;;14.60;7.85;;;;;;;;;;4924161;29;20047;-54
2021/05/31 01:59:37;;;;;;;15.30;8.18;;;;;;;;;;4922464;29;20052;-57
2021/05/31 02:02:04;;;;;;;11.70;7.87;;;;;;;;;;4925896;29;20071;-55
2021/05/31 02:04:31;;;;;;;14.70;8.60;;;;;;;;;;4928621;29;20055;-57
2021/05/31 02:06:57;;;;;;;14.10;8.13;;;;;;;;;;4927810;29;20736;-55
2021/05/31 02:09:24;;;;;;;15.93;8.32;;;;;;;;;;4926744;29;20067;-57
2021/05/31 02:12:04;;;;;;;16.83;9.88;;;;;;;;;;4922968;29;20538;-53
2021/05/31 02:14:46;;;;;;;17.85;8.75;;;;;;;;;;4920798;29;20124;-54
2021/05/31 02:17:17;;;;;;;14.52;8.05;;;;;;;;;;4921220;29;20052;-57
2021/05/31 02:19:44;;;;;;;19.08;8.38;;;;;;;;;;4927776;29;20048;-55
2021/05/31 02:22:13;;;;;;;9.80;8.38;;;;;;;;;;4926800;29;20531;-56
2021/05/31 02:24:40;;;;;;;16.50;8.35;;;;;;;;;;4929251;29;20087;-54
2021/05/31 02:27:07;;;;;;;14.98;8.10;;;;;;;;;;4928049;29;20044;-55
2021/05/31 02:29:33;;;;;;;13.57;8.43;;;;;;;;;;4920229;29;20079;-56
2021/05/31 02:32:01;;;;;;;15.60;8.43;;;;;;;;;;4922359;29;20051;-53
2021/05/31 02:34:31;;;;;;;13.05;9.23;;;;;;;;;;4928763;29;20047;-57
2021/05/31 02:36:58;;;;;;;20.13;9.73;;;;;;;;;;4927106;29;20488;-56
2021/05/31 02:39:25;;;;;;;17.27;9.40;;;;;;;;;;4924531;29;20090;-56
2021/05/31 02:41:51;;;;;;;17.95;9.10;;;;;;;;;;4928059;29;20130;-55
2021/05/31 02:44:18;;;;;;;17.35;9.93;;;;;;;;;;4932236;29;20060;-55
2021/05/31 02:46:45;;;;;;;18.90;8.82;;;;;;;;;;4926450;29;20111;-55
2021/05/31 02:49:12;;;;;;;20.25;9.52;;;;;;;;;;4927180;29;20047;-52
2021/05/31 02:51:39;;;;;;;17.27;9.43;;;;;;;;;;4924589;29;20539;-55
2021/05/31 02:54:07;;;;;;;21.02;9.55;;;;;;;;;;4929604;29;20047;-56
2021/05/31 02:56:33;;;;;;;14.10;9.52;;;;;;;;;;4923868;29;20566;-57
2021/05/31 02:59:00;;;;;;;19.25;9.82;;;;;;;;;;4929592;29;20070;-55
2021/05/31 03:01:26;;;;;;;19.05;10.30;;;;;;;;;;4925288;29;20102;-54
2021/05/31 03:03:53;;;;;;;18.00;9.20;;;;;;;;;;4928871;29;20047;-55
2021/05/31 03:06:21;;;;;;;14.68;9.05;;;;;;;;;;4927383;29;20331;-52
2021/05/31 03:08:47;;;;;;;13.47;8.53;;;;;;;;;;4922718;29;20048;-56
2021/05/31 03:11:14;;;;;;;17.40;9.03;;;;;;;;;;4928578;29;20677;-56
2021/05/31 03:13:41;;;;;;;19.92;10.15;;;;;;;;;;4925190;29;20783;-57
2021/05/31 03:16:07;;;;;;;22.37;9.30;;;;;;;;;;4919210;29;20496;-57
2021/05/31 03:18:34;;;;;;;24.95;9.48;;;;;;;;;;4925658;29;20408;-56
2021/05/31 03:21:00;;;;;;;17.20;8.95;;;;;;;;;;4920627;29;20492;-56
2021/05/31 03:23:27;;;;;;;14.98;7.63;;;;;;;;;;4931568;29;20062;-56
2021/05/31 03:25:54;;;;;;;14.13;7.88;;;;;;;;;;4924535;29;20043;-56
2021/05/31 03:28:20;;;;;;;18.67;9.23;;;;;;;;;;4928171;29;20044;-57
2021/05/31 03:30:48;;;;;;;12.05;8.25;;;;;;;;;;4925714;29;20103;-57
2021/05/31 03:33:14;;;;;;;18.30;9.37;;;;;;;;;;4938331;29;20050;-55
2021/05/31 03:35:41;;;;;;;16.70;8.95;;;;;;;;;;4927587;29;20048;-57
2021/05/31 03:38:08;;;;;;;26.00;10.35;;;;;;;;;;4925650;29;20048;-55
2021/05/31 03:40:34;;;;;;;15.95;9.57;;;;;;;;;;4923283;29;20072;-54
2021/05/31 03:43:01;;;;;;;16.20;8.90;;;;;;;;;;4924066;29;20045;-54
2021/05/31 03:45:27;;;;;;;14.10;8.80;;;;;;;;;;4926256;29;20105;-56
2021/05/31 03:47:54;;;;;;;23.13;9.30;;;;;;;;;;4928659;29;20043;-57
2021/05/31 03:50:21;;;;;;;20.23;9.97;;;;;;;;;;4924794;29;20485;-54
2021/05/31 03:52:49;;;;;;;14.70;9.17;;;;;;;;;;4927919;29;20300;-55
2021/05/31 03:55:16;;;;;;;17.08;7.80;;;;;;;;;;4924997;29;20421;-57
2021/05/31 03:57:43;;;;;;;19.13;8.43;;;;;;;;;;4925310;29;20057;-53
2021/05/31 04:00:10;;;;;;;17.17;8.23;;;;;;;;;;4929563;29;20103;-56
2021/05/31 04:02:38;;;;;;;16.27;7.38;;;;;;;;;;4929270;29;20064;-57
2021/05/31 04:05:06;;;;;;;16.20;7.25;;;;;;;;;;4929019;29;20035;-57
2021/05/31 04:13:04;;;;;;;13.52;6.43;;;;;;;;;;4929418;29;20048;-57
2021/05/31 04:15:31;;;;;;;11.93;5.93;;;;;;;;;;4927125;29;20063;-56
2021/05/31 04:17:58;;;;;;;15.13;5.97;;;;;;;;;;4927376;29;20110;-57
2021/05/31 04:20:24;;;;;;;12.65;5.65;;;;;;;;;;4924954;29;20064;-56
2021/05/31 04:22:51;;;;;;;10.60;6.05;;;;;;;;;;4926240;29;20526;-56
2021/05/31 04:25:18;;;;;;;8.50;5.30;;;;;;;;;;4926395;29;20131;-58
2021/05/31 04:27:45;;;;;;;15.07;5.95;;;;;;;;;;4923721;29;20055;-58
2021/05/31 04:30:14;;;;;;;12.90;5.85;;;;;;;;;;4922428;29;20077;-57
2021/05/31 04:32:41;;;;;;;11.90;5.85;;;;;;;;;;4921703;29;20134;-57
2021/05/31 04:35:08;;;;;;;11.48;5.60;;;;;;;;;;4925920;29;20039;-57
2021/05/31 04:37:35;;;;;;;9.93;5.90;;;;;;;;;;4921713;29;20063;-56
2021/05/31 04:40:03;;;;;;;12.68;6.53;;;;;;;;;;4928176;29;20043;-55
2021/05/31 04:42:29;;;;;;;;;;;;;;;;;;4905136;29;20051;-58
2021/05/31 04:44:56;;;;;;;12.15;6.80;;;;;;;;;;4919877;29;20405;-56
2021/05/31 04:47:22;;;;;;;10.38;6.10;;;;;;;;;;4926158;29;20083;-57
2021/05/31 04:49:49;;;;;;;12.75;6.32;;;;;;;;;;4926515;29;20049;-54
2021/05/31 04:52:16;;;;;;;10.02;5.90;;;;;;;;;;4927177;29;20090;-55
2021/05/31 04:54:43;;;;;;;13.15;6.22;;;;;;;;;;4925601;29;20083;-57
2021/05/31 04:57:10;;;;;;;;;;;;;;;;;;4920943;29;20516;-56
2021/05/31 04:59:37;;;;;;;12.45;6.13;;;;;;;;;;4927111;29;19929;-56
2021/05/31 05:02:03;;;;;;;10.73;5.95;;;;;;;;;;4924407;29;20144;-55
2021/05/31 05:04:30;;;;;;;10.73;6.03;;;;;;;;;;4920430;29;20087;-57
2021/05/31 05:06:57;;;;;;;;;;;;;;;;;;4924666;29;20044;-56
2021/05/31 05:09:24;;;;;;;16.20;6.13;;;;;;;;;;4911769;29;19923;-57
2021/05/31 05:11:51;;;;;;;10.43;5.65;;;;;;;;;;4926482;29;20103;-52
2021/05/31 05:14:18;;;;;;;12.50;5.68;;;;;;;;;;4922913;29;20048;-55
2021/05/31 05:16:45;;;;;;;7.63;4.78;;;;;;;;;;4925629;29;20044;-55
2021/05/31 05:19:12;;;;;;;10.93;5.07;;;;;;;;;;4925030;29;20100;-57
2021/05/31 05:21:41;;;;;;;8.98;5.50;;;;;;;;;;4928340;29;20068;-57
2021/05/31 05:24:07;;;;;;;11.98;5.15;;;;;;;;;;4924628;29;20043;-52
2021/05/31 05:26:34;;;;;;;9.13;5.30;;;;;;;;;;4928899;29;20099;-56
2021/05/31 05:29:02;;;;;;;12.60;5.55;;;;;;;;;;4927363;29;20407;-55
2021/05/31 05:31:28;;;;;;;9.95;5.28;;;;;;;;;;4926926;29;20130;-52
2021/05/31 05:33:57;;;;;;;12.23;5.10;;;;;;;;;;4928453;29;20048;-54
2021/05/31 05:36:45;;;;;;;8.13;5.22;;;;;;;;;;4927121;29;20302;-54
2021/05/31 05:47:47;;;;;;;9.65;5.38;;;;;;;;;;4924394;29;20500;-56
2021/05/31 05:50:16;;;;;;;6.30;4.55;;;;;;;;;;4925245;29;20047;-55
2021/05/31 05:52:43;;;;;;;6.95;4.90;;;;;;;;;;4920421;29;20530;-54
2021/05/31 05:55:14;;;;;;;8.27;4.35;;;;;;;;;;4924589;29;20040;-56
2021/05/31 05:57:41;;;;;;;7.20;4.40;;;;;;;;;;4927050;29;20651;-55
2021/05/31 06:00:20;;;;;;;7.57;4.53;;;;;;;;;;4925087;29;20040;-54
2021/05/31 06:02:47;;;;;;;6.88;4.65;;;;;;;;;;4909457;29;20052;-56
2021/05/31 06:05:15;;;;;;;6.47;4.15;;;;;;;;;;4912017;29;20054;-57
2021/05/31 06:07:41;;;;;;;8.15;3.85;;;;;;;;;;4904760;29;20091;-55
2021/05/31 06:10:09;;;;;;;5.88;4.32;;;;;;;;;;4906964;29;20416;-54
2021/05/31 06:12:36;;;;;;;10.63;4.82;;;;;;;;;;4904486;29;20170;-55
2021/05/31 06:15:04;;;;;;;7.97;4.22;;;;;;;;;;4908713;29;20071;-56
2021/05/31 06:17:31;;;;;;;7.47;4.55;;;;;;;;;;4904477;29;20044;-53
2021/05/31 06:20:02;;;;;;;6.85;4.03;;;;;;;;;;4910035;29;20050;-57
2021/05/31 06:22:31;;;;;;;5.20;4.15;;;;;;;;;;4907862;29;20044;-55
2021/05/31 06:24:59;;;;;;;7.15;4.07;;;;;;;;;;4908779;29;20044;-57
2021/05/31 06:27:26;;;;;;;6.23;4.30;;;;;;;;;;4911331;29;20048;-53
2021/05/31 06:29:53;;;;;;;8.52;4.13;;;;;;;;;;4905407;29;21062;-51
2021/05/31 06:32:19;;;;;;;9.32;4.30;;;;;;;;;;4903874;29;20050;-54
2021/05/31 06:34:46;;;;;;;8.13;3.90;;;;;;;;;;4910948;29;20053;-54
2021/05/31 06:37:13;;;;;;;5.40;4.18;;;;;;;;;;4907394;29;20586;-54
2021/05/31 06:39:40;;;;;;;9.68;4.70;;;;;;;;;;4903903;29;20052;-57
2021/05/31 06:42:07;;;;;;;7.00;4.23;;;;;;;;;;4910289;29;20040;-56
2021/05/31 06:44:33;;;;;;;8.67;4.40;;;;;;;;;;4905516;29;20131;-57
2021/05/31 06:47:01;;;;;;;8.27;4.47;;;;;;;;;;4911754;29;20047;-54
2021/05/31 06:49:28;;;;;;;7.60;4.38;;;;;;;;;;4908693;29;20404;-57
2021/05/31 06:51:54;;;;;;;7.47;4.80;;;;;;;;;;4910641;29;20515;-56
2021/05/31 06:54:23;;;;;;;6.63;4.18;;;;;;;;;;4899585;29;20372;-54
2021/05/31 06:56:49;;;;;;;6.93;4.20;;;;;;;;;;4902731;29;20523;-53
2021/05/31 06:59:16;;;;;;;7.38;4.10;;;;;;;;;;4907108;29;20470;-54
2021/05/31 07:01:43;;;;;;;8.23;4.50;;;;;;;;;;4914595;29;20055;-57
2021/05/31 07:04:12;;;;;;;8.75;4.78;;;;;;;;;;4925053;29;20207;-55
2021/05/31 07:06:39;;;;;;;11.70;4.88;;;;;;;;;;4919812;29;20058;-55
2021/05/31 07:09:09;;;;;;;8.50;4.97;;;;;;;;;;4922671;29;20057;-57
2021/05/31 07:11:38;;;;;;;6.68;4.80;;;;;;;;;;4922746;29;20131;-58
2021/05/31 07:14:05;;;;;;;11.93;5.72;;;;;;;;;;4928274;29;20048;-57
2021/05/31 07:16:34;;;;;;;7.05;4.35;;;;;;;;;;4927046;29;20044;-57
2021/05/31 07:19:00;;;;;;;8.40;5.45;;;;;;;;;;4924137;29;20653;-56
2021/05/31 07:21:28;;;;;;;8.45;5.45;;;;;;;;;;4928132;29;20036;-56
2021/05/31 07:23:55;;;;;;;;;;;;;;;;;;4922095;29;20076;-57
2021/05/31 07:26:22;;;;;;;9.45;5.82;;;;;;;;;;4922950;29;19923;-57
2021/05/31 07:28:48;;;;;;;11.27;5.57;;;;;;;;;;4925922;29;20127;-57
2021/05/31 07:31:15;;;;;;;10.70;5.43;;;;;;;;;;4925453;29;20523;-56
2021/05/31 07:33:42;;;;;;;10.68;5.50;;;;;;;;;;4933342;29;20047;-53
2021/05/31 07:36:09;;;;;;;7.75;5.43;;;;;;;;;;4924878;29;20052;-57
2021/05/31 07:38:36;;;;;;;10.40;5.03;;;;;;;;;;4906850;29;20050;-57
2021/05/31 07:41:02;;;;;;;8.40;5.18;;;;;;;;;;4926320;29;20052;-57
2021/05/31 07:43:29;;;;;;;12.98;5.57;;;;;;;;;;4920231;29;20043;-58
2021/05/31 07:45:56;;;;;;;7.93;4.82;;;;;;;;;;4927503;29;20094;-58
2021/05/31 07:48:23;;;;;;;11.68;5.40;;;;;;;;;;4926799;29;20040;-57
2021/05/31 07:50:50;;;;;;;10.15;5.53;;;;;;;;;;4928743;29;20063;-56
2021/05/31 07:53:20;;;;;;;;;;;;;;;;;;4925724;29;20051;-57
2021/05/31 07:55:47;;;;;;;11.45;5.50;;;;;;;;;;4928566;29;19969;-58
2021/05/31 07:58:14;;;;;;;12.23;5.97;;;;;;;;;;4919095;29;20697;-58
2021/05/31 08:00:42;;;;;;;;;;;;;;;;;;4923345;29;20464;-54
2021/05/31 08:03:09;;;;;;;9.98;5.57;;;;;;;;;;4922436;29;19961;-57
2021/05/31 08:05:36;;;;;;;7.57;5.00;;;;;;;;;;4905450;29;20511;-57
2021/05/31 08:08:03;;;;;;;8.57;5.43;;;;;;;;;;4927298;29;20390;-58
2021/05/31 08:10:31;;;;;;;6.68;4.63;;;;;;;;;;4930170;29;20051;-55
2021/05/31 08:12:57;;;;;;;11.63;5.05;;;;;;;;;;4923509;29;20044;-58
2021/05/31 08:15:24;;;;;;;7.47;4.53;;;;;;;;;;4925289;29;20735;-57
2021/05/31 08:17:51;;;;;;;8.00;5.00;;;;;;;;;;4921597;29;20050;-56
2021/05/31 08:20:17;;;;;;;8.15;5.30;;;;;;;;;;4925734;29;20043;-56
2021/05/31 08:22:47;;;;;;;12.65;4.97;;;;;;;;;;4925930;29;20046;-58
2021/05/31 08:25:15;;;;;;;26.55;5.05;;;;;;;;;;4927185;29;20040;-57
2021/05/31 08:27:42;;;;;;;10.90;4.78;;;;;;;;;;4926626;29;20039;-58
2021/05/31 08:30:10;;;;;;;8.50;4.30;;;;;;;;;;4922893;29;20105;-57
2021/05/31 08:32:37;;;;;;;9.95;4.93;;;;;;;;;;4922845;29;20050;-58
2021/05/31 08:35:03;;;;;;;8.25;4.45;;;;;;;;;;4927574;29;20067;-56
2021/05/31 08:37:30;;;;;;;8.70;4.75;;;;;;;;;;4924992;29;20039;-56
2021/05/31 08:39:57;;;;;;;8.32;5.00;;;;;;;;;;4924488;29;20098;-58
2021/05/31 08:42:23;;;;;;;11.00;4.93;;;;;;;;;;4928516;29;20039;-58
2021/05/31 08:44:51;;;;;;;7.25;4.30;;;;;;;;;;4924935;29;20205;-57
2021/05/31 08:47:18;;;;;;;7.15;4.72;;;;;;;;;;4918919;29;20050;-56
2021/05/31 08:49:46;;;;;;;10.88;4.35;;;;;;;;;;4920547;29;20056;-57
2021/05/31 08:52:12;;;;;;;6.93;4.50;;;;;;;;;;4928023;29;20083;-56
2021/05/31 08:54:39;;;;;;;7.55;4.85;;;;;;;;;;4925737;29;20063;-58
2021/05/31 08:57:06;;;;;;;6.85;4.30;;;;;;;;;;4911693;29;20043;-57
2021/05/31 08:59:33;;;;;;;7.53;3.90;;;;;;;;;;4928579;29;20036;-58
2021/05/31 09:02:00;;;;;;;13.02;4.68;;;;;;;;;;4934022;29;20130;-56
2021/05/31 09:04:28;;;;;;;11.30;4.80;;;;;;;;;;4930543;29;20449;-58
2021/05/31 09:06:54;;;;;;;;;;;;;;;;;;4928534;29;20040;-58
2021/05/31 09:09:36;;;;;;;9.07;4.45;;;;;;;;;;4929365;29;19923;-55
2021/05/31 09:12:06;;;;;;;9.10;4.57;;;;;;;;;;4928292;29;20100;-56
2021/05/31 09:14:33;;;;;;;7.45;4.75;;;;;;;;;;4927092;29;20046;-58
2021/05/31 09:17:00;;;;;;;7.57;4.57;;;;;;;;;;4927786;29;20056;-58
2021/05/31 09:19:28;;;;;;;6.82;4.07;;;;;;;;;;4927461;29;20040;-58
2021/05/31 09:21:56;;;;;;;6.83;4.37;;;;;;;;;;4941045;29;20048;-58
2021/05/31 09:24:23;;;;;;;11.25;4.40;;;;;;;;;;4929188;29;20048;-57
2021/05/31 09:26:59;;;;;;;7.47;4.28;;;;;;;;;;4929711;29;20656;-58
2021/05/31 09:29:27;;;;;;;7.45;4.60;;;;;;;;;;4926143;29;20044;-58
2021/05/31 09:31:58;;;;;;;8.00;4.30;;;;;;;;;;4933464;29;20044;-59
2021/05/31 09:34:26;;;;;;;11.85;5.40;;;;;;;;;;4924905;29;20056;-58
2021/05/31 09:36:53;;;;;;;11.95;5.10;;;;;;;;;;4933949;29;20087;-59
2021/05/31 09:39:29;;;;;;;7.53;4.45;;;;;;;;;;4930285;29;20039;-58
2021/05/31 09:42:03;;;;;;;8.88;4.75;;;;;;;;;;4930997;29;20044;-57
2021/05/31 09:44:30;;;;;;;7.68;4.30;;;;;;;;;;4926315;29;20048;-58
2021/05/31 09:46:57;;;;;;;12.60;5.07;;;;;;;;;;4925222;29;20497;-59
2021/05/31 09:49:27;;;;;;;8.55;4.93;;;;;;;;;;4926044;29;20291;-58
2021/05/31 09:51:58;;;;;;;7.95;4.22;;;;;;;;;;4929624;29;20185;-58
2021/05/31 09:54:26;;;;;;;11.73;4.35;;;;;;;;;;4920176;29;20047;-58
2021/05/31 09:56:53;;;;;;;15.00;5.07;;;;;;;;;;4912244;29;20055;-56
2021/05/31 09:59:23;;;;;;;10.10;5.07;;;;;;;;;;4930440;29;20071;-58
2021/05/31 10:01:54;;;;;;;8.52;4.72;;;;;;;;;;4926917;29;20055;-58
2021/05/31 10:07:00;;;;;;;10.23;4.88;;;;;;;;;;4925003;29;20044;-58
2021/05/31 10:09:28;;;;;;;10.45;5.32;;;;;;;;;;4924818;29;20115;-58
2021/05/31 10:11:56;;;;;;;12.02;5.55;;;;;;;;;;4925688;29;20067;-58
2021/05/31 10:14:23;;;;;;;11.52;4.93;;;;;;;;;;4925845;29;20092;-58
2021/05/31 10:16:51;;;;;;;19.85;5.38;;;;;;;;;;4927969;29;20059;-59
2021/05/31 10:19:18;;;;;;;13.63;4.88;;;;;;;;;;4927231;29;20079;-59
2021/05/31 10:21:45;;;;;;;11.32;5.40;;;;;;;;;;4929113;29;20047;-59
2021/05/31 10:24:12;;;;;;;13.32;5.18;;;;;;;;;;4929586;29;20046;-59
2021/05/31 10:26:39;;;;;;;12.18;5.25;;;;;;;;;;4924571;29;20482;-59
2021/05/31 10:29:08;;;;;;;10.82;5.53;;;;;;;;;;4926151;29;20056;-59
2021/05/31 10:31:43;;;;;;;10.95;5.15;;;;;;;;;;4926455;29;20074;-59
2021/05/31 10:34:17;;;;;;;11.88;4.72;;;;;;;;;;4927384;29;20051;-59
2021/05/31 10:36:49;;;;;;;10.50;4.43;;;;;;;;;;4921868;29;20574;-59
2021/05/31 10:39:26;;;;;;;12.57;4.80;;;;;;;;;;4923762;29;20048;-58
2021/05/31 10:42:04;;;;;;;7.32;4.47;;;;;;;;;;4930276;29;20071;-59
2021/05/31 10:44:31;;;;;;;8.10;4.88;;;;;;;;;;4909526;29;20056;-59
2021/05/31 10:47:05;;;;;;;10.23;4.75;;;;;;;;;;4903312;29;20122;-58
2021/05/31 10:49:32;;;;;;;10.85;4.60;;;;;;;;;;4925432;29;20080;-58
2021/05/31 10:51:58;;;;;;;8.60;4.80;;;;;;;;;;4924012;29;20416;-59
2021/05/31 10:54:25;;;;;;;10.63;4.63;;;;;;;;;;4926693;29;20512;-58
2021/05/31 10:57:03;;;;;;;8.35;4.40;;;;;;;;;;4923388;29;20044;-58
2021/05/31 10:59:31;;;;;;;7.30;4.32;;;;;;;;;;4928276;29;20062;-58
2021/05/31 11:01:57;;;;;;;10.70;4.10;;;;;;;;;;4928603;29;20051;-58
2021/05/31 11:04:26;;;;;;;8.15;4.55;;;;;;;;;;4925661;29;20132;-59
2021/05/31 11:06:54;;;;;;;8.82;5.20;;;;;;;;;;4925414;29;20043;-59
2021/05/31 11:09:29;;;;;;;7.18;4.20;;;;;;;;;;4922273;29;20126;-58
2021/05/31 11:11:57;;;;;;;14.73;5.10;;;;;;;;;;4924711;29;20055;-59
2021/05/31 11:14:30;;;;;;;11.40;4.75;;;;;;;;;;4926405;29;20042;-58
2021/05/31 11:17:01;;;;;;;9.77;4.40;;;;;;;;;;4927912;29;20111;-59
2021/05/31 11:19:35;;;;;;;8.15;4.90;;;;;;;;;;4927001;29;20048;-59
2021/05/31 11:22:18;;;;;;;10.10;4.30;;;;;;;;;;4926480;29;20048;-59
2021/05/31 11:24:52;;;;;;;10.10;5.30;;;;;;;;;;4925981;29;20071;-59
2021/05/31 11:27:22;;;;;;;8.13;4.63;;;;;;;;;;4926193;29;20050;-59
2021/05/31 11:29:49;;;;;;;12.65;5.28;;;;;;;;;;4927826;29;20067;-59
2021/05/31 11:32:17;;;;;;;9.13;4.68;;;;;;;;;;4922812;29;20065;-59
2021/05/31 11:34:58;;;;;;;11.77;5.00;;;;;;;;;;4924442;29;20036;-59
2021/05/31 11:37:26;;;;;;;10.95;4.60;;;;;;;;;;4920109;29;20056;-59
2021/05/31 11:39:54;;;;;;;8.88;4.90;;;;;;;;;;4920300;29;20525;-59
2021/05/31 11:42:21;;;;;;;7.03;4.68;;;;;;;;;;4930086;29;20102;-59
2021/05/31 11:45:06;;;;;;;10.88;4.68;;;;;;;;;;4927527;29;20407;-59
2021/05/31 11:47:33;;;;;;;9.05;4.63;;;;;;;;;;4927546;29;20142;-59
2021/05/31 11:50:00;;;;;;;8.00;4.10;;;;;;;;;;4924337;29;20064;-59
2021/05/31 11:52:27;;;;;;;11.43;4.97;;;;;;;;;;4929868;29;20039;-59
2021/05/31 11:54:54;;;;;;;7.97;4.20;;;;;;;;;;4928431;29;20431;-59
2021/05/31 11:57:23;;;;;;;7.93;4.10;;;;;;;;;;4926432;29;20031;-59
2021/05/31 11:59:51;;;;;;;8.80;4.53;;;;;;;;;;4914141;29;20039;-59
2021/05/31 12:02:19;;;;;;;8.60;4.05;;;;;;;;;;4924028;29;20546;-59
2021/05/31 12:04:46;;;;;;;8.60;3.80;;;;;;;;;;4924554;29;20131;-59
2021/05/31 12:07:14;;;;;;;6.10;4.15;;;;;;;;;;4928826;29;20052;-59
2021/05/31 12:09:45;;;;;;;5.75;4.20;;;;;;;;;;4925197;29;20040;-59
2021/05/31 12:12:13;;;;;;;6.75;4.10;;;;;;;;;;4923869;29;20051;-59
2021/05/31 12:14:44;;;;;;;7.90;4.40;;;;;;;;;;4926541;29;20046;-59
2021/05/31 12:17:11;;;;;;;7.65;4.20;;;;;;;;;;4923058;29;20134;-59
2021/05/31 12:19:38;;;;;;;7.03;4.63;;;;;;;;;;4924769;29;20040;-59
2021/05/31 12:22:06;;;;;;;6.20;3.83;;;;;;;;;;4926877;29;20739;-60
2021/05/31 12:24:34;;;;;;;7.35;4.25;;;;;;;;;;4920544;29;20058;-59
2021/05/31 12:27:02;;;;;;;5.13;4.28;;;;;;;;;;4928630;29;20059;-59
2021/05/31 12:29:32;;;;;;;5.47;3.90;;;;;;;;;;4923202;29;20036;-57
2021/05/31 12:31:59;;;;;;;7.57;4.47;;;;;;;;;;4927854;29;20095;-59
2021/05/31 12:34:26;;;;;;;7.38;4.45;;;;;;;;;;4919104;29;20047;-59
2021/05/31 12:36:53;;;;;;;7.40;4.20;;;;;;;;;;4921297;29;20039;-59
2021/05/31 12:39:21;;;;;;;8.50;4.47;;;;;;;;;;4926286;29;20514;-59
2021/05/31 12:41:52;;;;;;;7.38;4.68;;;;;;;;;;4917419;29;20040;-59
2021/05/31 12:44:19;;;;;;;;;;;;;;;;;;4922862;29;20696;-59
2021/05/31 12:46:46;;;;;;;9.25;4.68;;;;;;;;;;4921407;29;19923;-59
2021/05/31 12:49:18;;;;;;;7.07;4.53;;;;;;;;;;4927282;29;20075;-59
2021/05/31 12:51:56;;;;;;;8.95;5.63;;;;;;;;;;4923866;29;20044;-59
2021/05/31 12:54:24;;;;;;;6.97;5.07;;;;;;;;;;4917839;29;20052;-59
2021/05/31 12:56:52;;;;;;;10.57;4.80;;;;;;;;;;4925711;29;20059;-58
2021/05/31 12:59:23;;;;;;;7.97;5.03;;;;;;;;;;4924455;29;20135;-59
2021/05/31 13:01:50;;;;;;;8.35;5.28;;;;;;;;;;4919051;29;20052;-59
2021/05/31 13:04:24;;;;;;;11.50;6.23;;;;;;;;;;4924354;29;20055;-59
2021/05/31 13:06:51;;;;;;;9.80;5.80;;;;;;;;;;4925537;29;20048;-59
2021/05/31 13:09:22;;;;;;;8.57;5.57;;;;;;;;;;4918888;29;20048;-59
2021/05/31 13:11:50;;;;;;;13.38;5.55;;;;;;;;;;4923052;29;20068;-60
2021/05/31 13:14:16;;;;;;;;;;;;;;;;;;4920937;29;20453;-59
2021/05/31 13:16:55;;;;;;;12.10;6.10;;;;;;;;;;4918246;29;19966;-59
2021/05/31 13:19:24;;;;;;;12.15;6.45;;;;;;;;;;4924162;29;20056;-59
2021/05/31 13:21:56;;;;;;;12.77;5.85;;;;;;;;;;4922414;29;20039;-59
2021/05/31 13:24:28;;;;;;;10.00;6.00;;;;;;;;;;4926139;29;20480;-59
2021/05/31 13:26:56;;;;;;;11.98;6.03;;;;;;;;;;4928104;29;20129;-59
2021/05/31 13:29:23;;;;;;;12.50;6.45;;;;;;;;;;4920709;29;20040;-59
2021/05/31 13:31:51;;;;;;;13.93;6.78;;;;;;;;;;4927244;29;20055;-59
2021/05/31 13:34:18;;;;;;;13.57;7.00;;;;;;;;;;4930279;29;20047;-59
2021/05/31 13:36:44;;;;;;;12.20;6.57;;;;;;;;;;4922065;29;20091;-59
2021/05/31 13:39:13;;;;;;;14.90;6.95;;;;;;;;;;4920352;29;20044;-59
2021/05/31 13:41:41;;;;;;;10.55;6.78;;;;;;;;;;4924346;29;20044;-59
2021/05/31 13:44:11;;;;;;;14.77;7.57;;;;;;;;;;4925751;29;20043;-60
2021/05/31 13:46:40;;;;;;;15.80;7.07;;;;;;;;;;4928911;29;20048;-59
2021/05/31 13:49:07;;;;;;;13.70;6.82;;;;;;;;;;4924871;29;20127;-59
2021/05/31 13:51:39;;;;;;;11.20;6.55;;;;;;;;;;4926757;29;20530;-59
2021/05/31 13:54:06;;;;;;;12.85;6.70;;;;;;;;;;4923702;29;20516;-59
2021/05/31 13:56:37;;;;;;;11.32;6.32;;;;;;;;;;4927485;29;20500;-59
2021/05/31 13:59:04;;;;;;;16.00;7.18;;;;;;;;;;4926700;29;20054;-59
2021/05/31 14:01:32;;;;;;;17.42;7.70;;;;;;;;;;4928766;29;20055;-59
2021/05/31 14:03:59;;;;;;;11.95;6.60;;;;;;;;;;4926154;29;20044;-58
2021/05/31 14:06:26;;;;;;;12.98;7.20;;;;;;;;;;4935447;29;20048;-59
2021/05/31 14:08:54;;;;;;;12.20;7.05;;;;;;;;;;4926094;29;20522;-59
2021/05/31 14:11:21;;;;;;;11.65;7.13;;;;;;;;;;4929824;29;20555;-59
2021/05/31 14:13:47;;;;;;;13.93;7.00;;;;;;;;;;4909863;29;20071;-58
2021/05/31 14:16:14;;;;;;;12.13;6.60;;;;;;;;;;4931392;29;20636;-59
2021/05/31 14:18:42;;;;;;;13.13;7.17;;;;;;;;;;4923457;29;20091;-59
2021/05/31 14:21:09;;;;;;;12.93;6.85;;;;;;;;;;4929487;29;20302;-59
2021/05/31 14:23:36;;;;;;;14.82;7.30;;;;;;;;;;4923005;29;20051;-59
2021/05/31 14:26:03;;;;;;;13.43;7.10;;;;;;;;;;4927149;29;20056;-59
2021/05/31 14:28:30;;;;;;;15.73;7.72;;;;;;;;;;4932522;29;20070;-58
2021/05/31 14:30:57;;;;;;;13.25;7.40;;;;;;;;;;4921991;29;20044;-59
2021/05/31 14:33:24;;;;;;;13.35;7.38;;;;;;;;;;4908685;29;20047;-58
2021/05/31 14:35:50;;;;;;;12.73;7.23;;;;;;;;;;4922435;29;20079;-59
2021/05/31 14:38:18;;;;;;;14.70;7.18;;;;;;;;;;4921142;29;20054;-59
2021/05/31 14:40:45;;;;;;;16.10;7.70;;;;;;;;;;4928120;29;20051;-59
2021/05/31 14:43:11;;;;;;;12.90;6.93;;;;;;;;;;4925274;29;20040;-59
2021/05/31 14:45:38;;;;;;;14.45;7.25;;;;;;;;;;4924563;29;20266;-59
2021/05/31 14:48:05;;;;;;;13.98;7.00;;;;;;;;;;4921845;29;20058;-59
2021/05/31 14:50:32;;;;;;;12.18;6.78;;;;;;;;;;4925666;29;20044;-59
2021/05/31 14:53:00;;;;;;;14.32;7.18;;;;;;;;;;4925891;29;20058;-59
2021/05/31 14:55:26;;;;;;;14.15;7.00;;;;;;;;;;4926177;29;20051;-59
2021/05/31 14:57:53;;;;;;;11.50;6.72;;;;;;;;;;4931042;29;20055;-59
2021/05/31 15:00:20;;;;;;;;;;;;;;;;;;4925588;29;20453;-59
2021/05/31 15:02:47;;;;;;;11.82;6.53;;;;;;;;;;4924741;29;20460;-58